Time;durP1;ratioP1;P1;durP2;ratioP2;P2;SDS_P1;SDS_P2;PMS_P1;PMS_P2;Temp;Humidity;BMP_temperature;BMP_pressure;BME280_temperature;BME280_humidity;BME280_pressure;Samples;Min_cycle;Max_cycle;Signal;HPM_P1;HPM_P2
2022/08/18 00:02:05;;;;;;;1999.90;999.90;;;18.40;99.90;;;;;;5039185;28;20119;-79
2022/08/18 00:04:34;;;;;;;1999.90;999.90;;;18.40;99.90;;;;;;5037490;28;20498;-79
2022/08/18 00:07:00;;;;;;;1999.90;999.90;;;18.30;99.90;;;;;;5055963;28;20455;-79
2022/08/18 00:09:26;;;;;;;1999.90;999.90;;;18.30;99.90;;;;;;5053693;28;20049;-79
2022/08/18 00:11:52;;;;;;;1999.90;999.90;;;18.30;99.90;;;;;;5055153;28;20047;-80
2022/08/18 00:14:20;;;;;;;1999.90;999.90;;;18.30;99.90;;;;;;5085075;28;20041;-79
2022/08/18 00:16:46;;;;;;;1999.90;999.90;;;18.30;99.90;;;;;;5056500;28;20041;-79
2022/08/18 00:19:12;;;;;;;1999.90;999.90;;;18.30;99.90;;;;;;5088691;28;20504;-79
2022/08/18 00:21:38;;;;;;;1999.90;999.90;;;18.30;99.90;;;;;;5040826;28;20040;-79
2022/08/18 00:24:04;;;;;;;1999.90;999.90;;;18.20;99.90;;;;;;5044233;28;20412;-79
2022/08/18 00:26:29;;;;;;;1999.90;999.90;;;18.20;99.90;;;;;;5042884;28;20040;-79
2022/08/18 00:28:55;;;;;;;1999.90;999.90;;;18.20;99.90;;;;;;5055020;28;20033;-79
2022/08/18 00:31:21;;;;;;;1999.90;999.90;;;18.20;99.90;;;;;;5038577;28;20072;-79
2022/08/18 00:33:47;;;;;;;1999.90;999.90;;;18.20;99.90;;;;;;5089444;28;20063;-79
2022/08/18 00:36:12;;;;;;;1999.90;999.90;;;18.20;99.90;;;;;;5053488;28;20044;-79
2022/08/18 00:38:38;;;;;;;1999.90;999.90;;;18.20;99.90;;;;;;5053901;28;20051;-79
2022/08/18 00:41:05;;;;;;;1999.90;999.90;;;18.20;99.90;;;;;;5053433;28;20115;-78
2022/08/18 00:43:38;;;;;;;1999.90;999.90;;;18.20;99.90;;;;;;5038553;28;20049;-79
2022/08/18 00:46:25;;;;;;;1999.90;999.90;;;18.20;99.90;;;;;;5068405;28;20064;-79
2022/08/18 00:48:52;;;;;;;1999.90;999.90;;;18.20;99.90;;;;;;5053949;28;20416;-79
2022/08/18 00:51:26;;;;;;;1999.90;999.90;;;18.20;99.90;;;;;;5043522;28;20036;-79
2022/08/18 00:54:01;;;;;;;1999.90;999.90;;;18.20;99.90;;;;;;5050668;28;20041;-78
2022/08/18 00:56:44;;;;;;;1999.90;999.90;;;18.20;99.90;;;;;;5039828;28;20063;-79
2022/08/18 00:59:27;;;;;;;1999.90;999.90;;;18.10;99.90;;;;;;5056028;28;20044;-79
2022/08/18 01:01:54;;;;;;;;;;;18.10;99.90;;;;;;5072639;28;20116;-79
2022/08/18 01:04:38;;;;;;;1999.90;999.90;;;18.10;99.90;;;;;;5037324;28;19928;-79
2022/08/18 01:07:20;;;;;;;1999.90;999.90;;;18.10;99.90;;;;;;5046757;28;20048;-78
2022/08/18 01:09:48;;;;;;;1999.90;999.90;;;18.10;99.90;;;;;;5069415;28;20370;-78
2022/08/18 01:12:13;;;;;;;1999.90;999.90;;;18.00;99.90;;;;;;5052702;28;20040;-78
2022/08/18 01:14:39;;;;;;;1999.90;999.90;;;18.00;99.90;;;;;;5052653;28;20044;-78
2022/08/18 01:22:48;;;;;;;1999.90;999.90;;;18.00;99.90;;;;;;5056357;28;20501;-78
2022/08/18 01:28:05;;;;;;;1999.90;999.90;;;18.10;99.90;;;;;;5054344;28;20056;-78
2022/08/18 01:30:43;;;;;;;1999.90;999.90;;;18.10;99.90;;;;;;5047660;28;20070;-78
2022/08/18 01:33:11;;;;;;;1999.90;999.90;;;18.10;99.90;;;;;;5051420;28;20515;-78
2022/08/18 01:35:37;;;;;;;1999.90;999.90;;;18.10;99.90;;;;;;5063720;28;20392;-79
2022/08/18 01:38:03;;;;;;;1999.90;999.90;;;18.10;99.90;;;;;;5057177;28;20090;-78
2022/08/18 01:40:30;;;;;;;1999.90;999.90;;;18.10;99.90;;;;;;5065941;28;20044;-79
2022/08/18 01:42:56;;;;;;;1999.90;999.90;;;18.10;99.90;;;;;;5067309;28;20063;-78
2022/08/18 01:45:21;;;;;;;1999.90;999.90;;;18.10;99.90;;;;;;5057458;28;20594;-78
2022/08/18 01:47:49;;;;;;;1999.90;999.90;;;18.10;99.90;;;;;;5044862;28;20094;-78
2022/08/18 01:50:16;;;;;;;1999.90;999.90;;;18.10;99.90;;;;;;5067323;28;20098;-78
2022/08/18 01:52:42;;;;;;;1999.90;999.90;;;18.10;99.90;;;;;;5065478;28;20048;-78
2022/08/18 01:55:08;;;;;;;1999.90;999.90;;;18.20;99.90;;;;;;5048242;28;20041;-78
2022/08/18 01:57:41;;;;;;;1999.90;999.90;;;18.10;99.90;;;;;;5049082;28;20520;-78
2022/08/18 02:00:09;;;;;;;1999.90;999.90;;;18.10;99.90;;;;;;5072275;28;20048;-79
2022/08/18 02:02:34;;;;;;;1999.90;999.90;;;18.10;99.90;;;;;;5072486;28;20048;-78
2022/08/18 02:05:06;;;;;;;1999.90;999.90;;;18.10;99.90;;;;;;5059601;28;20049;-78
2022/08/18 02:07:33;;;;;;;1999.90;999.90;;;18.10;99.90;;;;;;5054368;28;20045;-78
2022/08/18 02:09:59;;;;;;;1999.90;999.90;;;18.00;99.90;;;;;;5051013;28;20341;-78
2022/08/18 02:12:24;;;;;;;1999.90;999.90;;;18.00;99.90;;;;;;5052307;28;20032;-78
2022/08/18 02:14:51;;;;;;;1999.90;999.90;;;18.00;99.90;;;;;;5043187;28;20189;-79
2022/08/18 02:17:18;;;;;;;1999.90;999.90;;;18.00;99.90;;;;;;5037559;28;20051;-78
2022/08/18 02:19:45;;;;;;;1999.90;999.90;;;18.00;99.90;;;;;;5054653;28;20408;-78
2022/08/18 02:22:14;;;;;;;1999.90;999.90;;;18.00;99.90;;;;;;5054469;28;20044;-78
2022/08/18 02:24:40;;;;;;;1999.90;999.90;;;18.00;99.90;;;;;;5039597;28;20115;-78
2022/08/18 02:27:08;;;;;;;1999.90;999.90;;;18.00;99.90;;;;;;5052655;28;20557;-78
2022/08/18 02:29:34;;;;;;;1999.90;999.90;;;17.90;99.90;;;;;;5055523;28;20075;-78
2022/08/18 02:32:00;;;;;;;1999.90;999.90;;;18.00;99.90;;;;;;5049898;28;20090;-78
2022/08/18 02:34:25;;;;;;;1999.90;999.90;;;18.00;99.90;;;;;;5040447;28;20040;-78
2022/08/18 02:36:51;;;;;;;1999.90;999.90;;;18.00;99.90;;;;;;5031382;28;20036;-78
2022/08/18 02:39:17;;;;;;;1999.90;999.90;;;18.00;99.90;;;;;;5068049;28;20061;-78
2022/08/18 02:41:43;;;;;;;1999.90;999.90;;;18.00;99.90;;;;;;5034064;28;20087;-78
2022/08/18 02:44:09;;;;;;;1999.90;999.90;;;18.00;99.90;;;;;;5056910;28;20473;-78
2022/08/18 02:46:35;;;;;;;1999.90;999.90;;;18.00;99.90;;;;;;5053873;28;20033;-78
2022/08/18 02:49:02;;;;;;;1999.90;999.90;;;18.00;99.90;;;;;;5058528;28;20144;-78
2022/08/18 02:51:28;;;;;;;1999.90;999.90;;;18.00;99.90;;;;;;5044623;28;20484;-79
2022/08/18 02:53:57;;;;;;;1999.90;999.90;;;18.00;99.90;;;;;;5056892;28;20068;-78
2022/08/18 02:56:28;;;;;;;1999.90;999.90;;;18.00;99.90;;;;;;5045163;28;20106;-78
2022/08/18 02:59:05;;;;;;;1999.90;999.90;;;18.00;99.90;;;;;;5041960;28;20048;-78
2022/08/18 03:01:35;;;;;;;1999.90;999.90;;;18.00;99.90;;;;;;5039506;28;21425;-78
2022/08/18 03:04:01;;;;;;;1999.90;999.90;;;18.00;99.90;;;;;;5041952;28;20580;-78
2022/08/18 03:06:28;;;;;;;1999.90;999.90;;;18.00;99.90;;;;;;5046778;28;20043;-78
2022/08/18 03:08:54;;;;;;;1999.90;999.90;;;18.00;99.90;;;;;;5048614;28;20131;-78
2022/08/18 03:11:23;;;;;;;1999.90;999.90;;;18.00;99.90;;;;;;5058275;28;20565;-78
2022/08/18 03:13:50;;;;;;;1999.90;999.90;;;18.00;99.90;;;;;;5062130;28;20055;-78
2022/08/18 03:16:16;;;;;;;1999.90;999.90;;;18.10;99.90;;;;;;5054264;28;20461;-78
2022/08/18 03:18:43;;;;;;;1999.90;999.90;;;18.10;99.90;;;;;;5044964;28;20515;-78
2022/08/18 03:21:13;;;;;;;1999.90;999.90;;;18.10;99.90;;;;;;5046968;28;20051;-78
2022/08/18 03:23:42;;;;;;;1999.90;999.90;;;18.10;99.90;;;;;;5040817;28;20051;-78
2022/08/18 03:26:14;;;;;;;1999.90;999.90;;;18.10;99.90;;;;;;5039104;28;20059;-78
2022/08/18 03:28:42;;;;;;;1999.90;999.90;;;18.10;99.90;;;;;;5057531;28;20040;-78
2022/08/18 03:31:09;;;;;;;1999.90;999.90;;;18.10;99.90;;;;;;5041296;28;20560;-78
2022/08/18 03:33:35;;;;;;;1999.90;999.90;;;18.10;99.90;;;;;;5056265;28;20370;-79
2022/08/18 03:36:29;;;;;;;1999.90;999.90;;;18.10;99.90;;;;;;5037321;28;20071;-79
2022/08/18 03:38:55;;;;;;;1999.90;999.90;;;18.10;99.90;;;;;;5052828;28;20068;-78
2022/08/18 03:41:24;;;;;;;1999.90;999.90;;;18.10;99.90;;;;;;5046061;28;20051;-79
2022/08/18 03:43:50;;;;;;;1999.90;999.90;;;18.10;99.90;;;;;;5055586;28;20052;-79
2022/08/18 03:46:18;;;;;;;1999.90;999.90;;;18.10;99.90;;;;;;5054248;28;20389;-78
2022/08/18 03:48:46;;;;;;;1999.90;999.90;;;18.10;99.90;;;;;;5055815;28;20273;-79
2022/08/18 03:51:17;;;;;;;1999.90;999.90;;;18.10;99.90;;;;;;5052916;28;20049;-79
2022/08/18 03:53:44;;;;;;;1999.90;999.90;;;18.10;99.90;;;;;;5041516;28;20032;-79
2022/08/18 03:56:17;;;;;;;1999.90;999.90;;;18.10;99.90;;;;;;5088214;28;20681;-78
2022/08/18 03:58:44;;;;;;;;;;;18.10;99.90;;;;;;5041572;28;20037;-78
2022/08/18 04:01:14;;;;;;;1999.90;999.90;;;18.10;99.90;;;;;;5055280;28;19916;-78
2022/08/18 04:03:41;;;;;;;1999.90;999.90;;;18.10;99.90;;;;;;5072362;28;20036;-79
2022/08/18 04:06:06;;;;;;;1999.90;999.90;;;18.10;99.90;;;;;;5052983;28;20097;-78
2022/08/18 04:08:32;;;;;;;1999.90;999.90;;;18.10;99.90;;;;;;5037919;28;20033;-78
2022/08/18 04:10:58;;;;;;;1999.90;999.90;;;18.10;99.90;;;;;;5053511;28;20136;-78
2022/08/18 04:13:24;;;;;;;1999.90;999.90;;;18.10;99.90;;;;;;5057006;28;20040;-79
2022/08/18 04:15:49;;;;;;;1999.90;999.90;;;18.10;99.90;;;;;;5053495;28;20033;-78
2022/08/18 04:18:15;;;;;;;1999.90;999.90;;;18.10;99.90;;;;;;5041412;28;20040;-79
2022/08/18 04:20:40;;;;;;;1999.90;999.90;;;18.10;99.90;;;;;;5055190;28;20123;-79
2022/08/18 04:23:06;;;;;;;1999.90;999.90;;;18.10;99.90;;;;;;5073034;28;20040;-79
2022/08/18 04:25:32;;;;;;;1999.90;999.90;;;18.10;99.90;;;;;;5042601;28;20047;-79
2022/08/18 04:28:00;;;;;;;1999.90;999.90;;;18.10;99.90;;;;;;5038410;28;20043;-78
2022/08/18 04:30:27;;;;;;;1999.90;999.90;;;18.10;99.90;;;;;;5046339;28;20037;-79
2022/08/18 04:32:53;;;;;;;1999.90;999.90;;;18.20;99.90;;;;;;5042443;28;20044;-79
2022/08/18 04:35:21;;;;;;;1999.90;999.90;;;18.20;99.90;;;;;;5037112;28;20041;-79
2022/08/18 04:37:46;;;;;;;1999.90;999.90;;;18.20;99.90;;;;;;5074088;28;20143;-78
2022/08/18 04:40:13;;;;;;;1999.90;999.90;;;18.20;99.90;;;;;;5042767;28;20147;-79
2022/08/18 04:42:39;;;;;;;1999.90;999.90;;;18.20;99.90;;;;;;5058237;28;20492;-79
2022/08/18 04:45:06;;;;;;;1999.90;999.90;;;18.20;99.90;;;;;;5041320;28;20051;-79
2022/08/18 04:47:31;;;;;;;1999.90;999.90;;;18.20;99.90;;;;;;5042702;28;20041;-79
2022/08/18 04:49:57;;;;;;;1999.90;999.90;;;18.20;99.90;;;;;;5059412;28;20116;-79
2022/08/18 04:55:07;;;;;;;1999.90;999.90;;;18.20;99.90;;;;;;5055972;28;20080;-79
2022/08/18 04:57:33;;;;;;;1999.90;999.90;;;18.20;99.90;;;;;;5041094;28;20076;-78
2022/08/18 04:59:59;;;;;;;1999.90;999.90;;;18.20;99.90;;;;;;5043234;28;20496;-79
2022/08/18 05:02:24;;;;;;;1999.90;999.90;;;18.30;99.90;;;;;;5054202;28;20041;-79
2022/08/18 05:04:50;;;;;;;1999.90;999.90;;;18.30;99.90;;;;;;5041620;28;20060;-78
2022/08/18 05:07:19;;;;;;;1999.90;999.90;;;18.30;99.90;;;;;;5038113;28;20070;-78
2022/08/18 05:09:45;;;;;;;1999.90;999.90;;;18.30;99.90;;;;;;5039086;28;20508;-78
2022/08/18 05:12:13;;;;;;;1999.90;999.90;;;18.30;99.90;;;;;;5052577;28;20452;-79
2022/08/18 05:14:43;;;;;;;1999.90;999.90;;;18.30;99.90;;;;;;5052463;28;20040;-78
2022/08/18 05:17:11;;;;;;;1999.90;999.90;;;18.30;99.90;;;;;;5052792;28;20250;-79
2022/08/18 05:19:36;;;;;;;1999.90;999.90;;;18.30;99.90;;;;;;5054184;28;20033;-79
2022/08/18 05:22:03;;;;;;;1999.90;999.90;;;18.40;99.90;;;;;;5076559;28;20099;-79
2022/08/18 05:24:31;;;;;;;1999.90;999.90;;;18.40;99.90;;;;;;5054736;28;20668;-80
2022/08/18 05:26:57;;;;;;;1999.90;999.90;;;18.40;99.90;;;;;;5043086;28;20069;-79
2022/08/18 05:29:23;;;;;;;1999.90;999.90;;;18.40;99.90;;;;;;5054167;28;20067;-79
2022/08/18 05:31:51;;;;;;;1999.90;999.90;;;18.40;99.90;;;;;;5055453;28;20507;-78
2022/08/18 05:34:20;;;;;;;1999.90;999.90;;;18.40;99.90;;;;;;5037723;28;20041;-78
2022/08/18 05:36:51;;;;;;;1999.90;999.90;;;18.40;99.90;;;;;;5085230;28;20036;-78
2022/08/18 05:39:22;;;;;;;1999.90;999.90;;;18.40;99.90;;;;;;5049726;28;20052;-78
2022/08/18 05:41:59;;;;;;;1999.90;999.90;;;18.50;99.90;;;;;;5043442;28;20076;-79
2022/08/18 05:44:38;;;;;;;1999.90;999.90;;;18.50;99.90;;;;;;5055357;28;20040;-78
2022/08/18 05:47:11;;;;;;;1999.90;999.90;;;18.60;99.90;;;;;;5037438;28;20037;-79
2022/08/18 05:49:38;;;;;;;1999.90;999.90;;;18.60;99.90;;;;;;5056176;28;20736;-79
2022/08/18 05:52:13;;;;;;;1999.90;999.90;;;18.50;99.90;;;;;;5048404;28;20033;-79
2022/08/18 05:57:36;;;;;;;1999.90;999.90;;;18.50;99.90;;;;;;5053039;28;20060;-79
2022/08/18 06:00:05;;;;;;;1999.90;999.90;;;18.60;99.90;;;;;;5051245;28;20120;-79
2022/08/18 06:02:33;;;;;;;1999.90;999.90;;;18.60;99.90;;;;;;5054819;28;20524;-79
2022/08/18 06:05:21;;;;;;;1999.90;999.90;;;18.60;99.90;;;;;;5072295;28;20175;-79
2022/08/18 06:07:56;;;;;;;1999.90;999.90;;;18.60;99.90;;;;;;5087026;28;20037;-78
2022/08/18 06:10:22;;;;;;;1999.90;999.90;;;18.60;99.90;;;;;;5059390;28;20074;-78
2022/08/18 06:13:00;;;;;;;1999.90;999.90;;;18.60;99.90;;;;;;5044241;28;20511;-79
2022/08/18 06:15:34;;;;;;;1999.90;999.90;;;18.60;99.90;;;;;;5059398;28;20531;-78
2022/08/18 06:18:29;;;;;;;1999.90;999.90;;;18.60;99.90;;;;;;5093039;28;20067;-78
2022/08/18 06:21:02;;;;;;;1999.90;999.90;;;18.60;99.90;;;;;;5043599;28;20136;-78
2022/08/18 06:23:50;;;;;;;1999.90;999.90;;;18.70;99.90;;;;;;5060640;28;20573;-79
2022/08/18 06:26:59;;;;;;;1999.90;999.90;;;18.70;99.90;;;;;;5088281;28;20040;-78
2022/08/18 06:29:37;;;;;;;1999.90;999.90;;;18.80;99.90;;;;;;5095799;28;20130;-78
2022/08/18 06:32:21;;;;;;;1999.90;999.90;;;18.80;99.90;;;;;;5050450;28;20036;-79
2022/08/18 06:35:07;;;;;;;1999.90;999.90;;;18.80;99.90;;;;;;5073590;28;20401;-79
2022/08/18 06:40:37;;;;;;;1999.90;999.90;;;18.90;99.90;;;;;;5056678;28;20576;-77
2022/08/18 06:43:08;;;;;;;1999.90;999.90;;;18.80;99.90;;;;;;5038803;28;20127;-78
2022/08/18 06:45:36;;;;;;;1999.90;999.90;;;18.80;99.90;;;;;;5050772;28;20045;-78
2022/08/18 06:48:24;;;;;;;1999.90;999.90;;;18.80;99.90;;;;;;5037846;28;20134;-79
2022/08/18 06:50:54;;;;;;;1999.90;999.90;;;18.80;99.90;;;;;;5053842;28;20393;-78
2022/08/18 06:53:20;;;;;;;1999.90;999.90;;;18.80;99.90;;;;;;5074057;28;20041;-78
2022/08/18 06:55:49;;;;;;;1999.90;999.90;;;18.70;99.90;;;;;;5055401;28;20040;-78
2022/08/18 06:58:14;;;;;;;1999.90;999.90;;;18.80;99.90;;;;;;5054165;28;20040;-79
2022/08/18 07:01:05;;;;;;;1999.90;999.90;;;18.80;99.90;;;;;;5055148;28;20369;-79
2022/08/18 07:03:53;;;;;;;1999.90;999.90;;;18.80;99.90;;;;;;5062987;28;20056;-80
2022/08/18 07:06:19;;;;;;;1999.90;999.90;;;18.80;99.90;;;;;;5054892;28;20047;-80
2022/08/18 07:08:47;;;;;;;1999.90;999.90;;;18.80;99.90;;;;;;5047311;28;20078;-79
2022/08/18 07:11:15;;;;;;;1999.90;999.90;;;18.80;99.90;;;;;;5054705;28;20078;-80
2022/08/18 07:13:43;;;;;;;1999.90;999.90;;;18.80;99.90;;;;;;5082381;28;20063;-80
2022/08/18 07:16:27;;;;;;;1999.90;999.90;;;18.80;99.90;;;;;;5076037;28;20049;-80
2022/08/18 07:18:54;;;;;;;1999.90;999.90;;;18.80;99.90;;;;;;5064764;28;20036;-80
2022/08/18 07:21:28;;;;;;;1999.90;999.90;;;18.80;99.90;;;;;;5048623;28;20040;-80
2022/08/18 07:24:26;;;;;;;1999.90;999.90;;;18.90;99.90;;;;;;5073108;28;20072;-80
2022/08/18 07:27:03;;;;;;;1999.90;999.90;;;19.00;99.90;;;;;;5103817;28;20450;-80
2022/08/18 07:29:32;;;;;;;1999.90;999.90;;;19.00;99.90;;;;;;5090954;28;20036;-80
2022/08/18 07:32:20;;;;;;;1999.90;999.90;;;19.10;99.90;;;;;;5064724;28;20110;-80
2022/08/18 07:34:52;;;;;;;1999.90;999.90;;;19.30;99.90;;;;;;5051303;28;20041;-80
2022/08/18 07:37:42;;;;;;;1999.90;999.90;;;19.70;99.90;;;;;;5047111;28;20040;-79
2022/08/18 07:40:13;;;;;;;1999.90;999.90;;;20.10;99.90;;;;;;5060595;28;20233;-79
2022/08/18 07:43:00;;;;;;;1999.90;999.90;;;20.40;99.90;;;;;;5070231;28;20044;-80
2022/08/18 07:45:41;;;;;;;1999.90;999.90;;;20.50;99.90;;;;;;5045584;28;20037;-79
2022/08/18 07:48:20;;;;;;;1999.90;999.90;;;20.50;99.90;;;;;;5069863;28;20565;-80
2022/08/18 07:50:46;;;;;;;1999.90;999.90;;;20.50;99.90;;;;;;5063265;28;20037;-79
2022/08/18 07:53:15;;;;;;;1999.90;999.90;;;20.40;99.90;;;;;;5058240;28;20051;-79
2022/08/18 07:55:47;;;;;;;1999.90;999.90;;;20.30;99.90;;;;;;5052786;28;20592;-79
2022/08/18 07:58:44;;;;;;;1999.90;999.90;;;20.20;99.90;;;;;;5044139;28;20044;-79
2022/08/18 08:01:42;;;;;;;1999.90;999.90;;;20.20;99.90;;;;;;5038788;28;20068;-79
2022/08/18 08:04:08;;;;;;;1999.90;999.90;;;20.10;99.90;;;;;;5055473;28;20049;-80
2022/08/18 08:06:47;;;;;;;1999.90;999.90;;;20.10;99.90;;;;;;5063940;28;21550;-78
2022/08/18 08:09:48;;;;;;;1999.90;999.90;;;20.00;99.90;;;;;;5041074;28;20090;-79
2022/08/18 08:12:29;;;;;;;1999.90;999.90;;;19.90;99.90;;;;;;5064911;28;20039;-79
2022/08/18 08:15:24;;;;;;;1999.90;999.90;;;19.80;99.90;;;;;;5096144;28;20508;-78
2022/08/18 08:18:01;;;;;;;1999.90;999.90;;;19.80;99.90;;;;;;5051264;28;20370;-79
2022/08/18 08:20:30;;;;;;;1999.90;999.90;;;19.90;99.90;;;;;;5051546;28;20044;-79
2022/08/18 08:23:29;;;;;;;1999.90;999.90;;;20.00;99.90;;;;;;5053012;28;20048;-79
2022/08/18 08:26:04;;;;;;;1999.90;999.90;;;20.20;99.90;;;;;;5066806;28;20044;-78
2022/08/18 08:28:47;;;;;;;1999.90;999.90;;;20.20;99.90;;;;;;5062454;28;20049;-79
2022/08/18 08:31:23;;;;;;;1999.90;999.90;;;20.10;99.90;;;;;;5056320;28;20520;-78
2022/08/18 08:34:14;;;;;;;1999.90;999.90;;;20.10;99.90;;;;;;5091528;28;20068;-78
2022/08/18 08:36:44;;;;;;;1999.90;999.90;;;20.00;99.90;;;;;;5067762;28;20072;-78
2022/08/18 08:39:09;;;;;;;1999.90;999.90;;;19.90;99.90;;;;;;5068747;28;20055;-79
2022/08/18 08:42:07;;;;;;;1999.90;999.90;;;19.90;99.90;;;;;;5045148;28;20482;-78
2022/08/18 08:44:45;;;;;;;1999.90;999.90;;;19.90;99.90;;;;;;5064464;28;20098;-78
2022/08/18 08:47:17;;;;;;;1999.90;999.90;;;19.80;99.90;;;;;;5057725;28;20130;-78
2022/08/18 08:49:54;;;;;;;1999.90;999.90;;;19.80;99.90;;;;;;5058971;28;20037;-79
2022/08/18 08:52:50;;;;;;;1999.90;999.90;;;19.80;99.90;;;;;;5051240;28;20044;-78
2022/08/18 08:55:25;;;;;;;1999.90;999.90;;;19.90;99.90;;;;;;5068178;28;20056;-79
2022/08/18 08:58:07;;;;;;;1999.90;999.90;;;20.00;99.90;;;;;;5060438;28;20060;-78
2022/08/18 09:00:34;;;;;;;1999.90;999.90;;;20.60;99.90;;;;;;5089128;28;20040;-78
2022/08/18 09:03:24;;;;;;;1999.90;999.90;;;21.10;99.90;;;;;;5068537;28;20059;-78
2022/08/18 09:06:04;;;;;;;1999.90;999.90;;;21.10;99.90;;;;;;5090592;28;20079;-78
2022/08/18 09:09:02;;;;;;;1999.90;999.90;;;21.20;99.90;;;;;;5066591;28;20040;-77
2022/08/18 09:11:47;;;;;;;1999.90;999.90;;;21.20;99.90;;;;;;5030551;28;20051;-78
2022/08/18 09:14:22;;;;;;;1999.90;999.90;;;21.30;99.90;;;;;;5038142;28;20040;-78
2022/08/18 09:17:13;;;;;;;1999.90;999.90;;;21.30;99.90;;;;;;5068011;28;20527;-78
2022/08/18 09:19:57;;;;;;;1999.90;999.90;;;21.40;99.90;;;;;;5089524;28;20044;-78
2022/08/18 09:22:32;;;;;;;1999.90;999.90;;;21.30;99.90;;;;;;5057755;28;20078;-78
2022/08/18 09:24:58;;;;;;;1999.90;999.90;;;21.40;99.90;;;;;;5051336;28;20041;-78
2022/08/18 09:27:40;;;;;;;1999.90;999.90;;;21.90;99.90;;;;;;5063555;28;20775;-78
2022/08/18 09:30:27;;;;;;;1999.90;999.90;;;22.60;99.90;;;;;;5051646;28;20036;-78
2022/08/18 09:33:25;;;;;;;1999.90;999.90;;;23.10;99.90;;;;;;5059581;28;20136;-78
2022/08/18 09:36:13;;;;;;;1999.90;999.90;;;23.00;99.90;;;;;;5058716;28;20123;-78
2022/08/18 09:41:52;;;;;;;1999.90;999.90;;;22.30;99.90;;;;;;5057176;28;20133;-78
2022/08/18 09:44:47;;;;;;;1999.90;999.90;;;22.00;99.90;;;;;;5051160;28;20432;-78
2022/08/18 09:47:24;;;;;;;1999.90;999.90;;;21.70;99.90;;;;;;5048733;28;20042;-78
2022/08/18 09:49:55;;;;;;;1999.90;999.90;;;21.60;99.90;;;;;;5058799;28;20051;-78
2022/08/18 09:52:20;;;;;;;1999.90;999.90;;;21.50;99.90;;;;;;5074149;28;20047;-78
2022/08/18 09:54:57;;;;;;;1999.90;999.90;;;21.50;99.90;;;;;;5067422;28;20412;-78
2022/08/18 09:57:32;;;;;;;1999.90;999.90;;;21.60;99.90;;;;;;5066733;28;20047;-78
2022/08/18 10:00:06;;;;;;;1999.90;999.90;;;21.50;99.90;;;;;;5063503;28;20133;-78
2022/08/18 10:02:32;;;;;;;1999.90;999.90;;;21.50;99.90;;;;;;5062182;28;20416;-78
2022/08/18 10:05:30;;;;;;;1999.90;999.90;;;21.40;99.90;;;;;;5067581;28;20047;-78
2022/08/18 10:08:15;;;;;;;1999.90;999.90;;;21.40;99.90;;;;;;5058885;28;20186;-77
2022/08/18 10:11:27;;;;;;;1999.90;999.90;;;21.40;99.90;;;;;;5087746;28;20047;-77
2022/08/18 10:14:06;;;;;;;1999.90;999.90;;;21.40;99.90;;;;;;5050774;28;20049;-77
2022/08/18 10:16:46;;;;;;;1999.90;999.90;;;21.60;99.90;;;;;;5050131;28;20086;-77
2022/08/18 10:19:32;;;;;;;1999.90;999.90;;;21.80;99.90;;;;;;5055847;28;20078;-78
2022/08/18 10:21:57;;;;;;;1999.90;999.90;;;22.10;99.90;;;;;;5067406;28;20037;-77
2022/08/18 10:24:38;;;;;;;1999.90;999.90;;;22.30;99.90;;;;;;5067560;28;20106;-78
2022/08/18 10:27:07;;;;;;;1999.90;999.90;;;22.30;99.90;;;;;;5079077;28;20046;-78
2022/08/18 10:29:49;;;;;;;1999.90;999.90;;;22.20;99.90;;;;;;5067908;28;20453;-77
2022/08/18 10:32:17;;;;;;;1999.90;999.90;;;22.20;99.90;;;;;;5067359;28;20530;-78
2022/08/18 10:34:51;;;;;;;1999.90;999.90;;;22.20;99.90;;;;;;5059300;28;20302;-78
2022/08/18 10:37:37;;;;;;;1999.90;999.90;;;22.30;99.90;;;;;;5050278;28;20048;-78
2022/08/18 10:40:09;;;;;;;1999.90;999.90;;;22.60;99.90;;;;;;5067071;28;20056;-77
2022/08/18 10:42:38;;;;;;;1999.90;999.90;;;23.20;99.90;;;;;;5060905;28;20045;-77
2022/08/18 10:45:13;;;;;;;1999.90;999.90;;;23.40;99.90;;;;;;5061462;28;20084;-77
2022/08/18 10:47:41;;;;;;;1999.90;999.90;;;23.30;99.90;;;;;;5059365;28;20437;-78
2022/08/18 10:50:20;;;;;;;1999.90;999.90;;;22.90;99.90;;;;;;5078958;28;20044;-77
2022/08/18 10:53:23;;;;;;;1999.90;999.90;;;22.70;99.90;;;;;;5069529;28;20044;-77
2022/08/18 10:55:59;;;;;;;1999.90;999.90;;;22.40;99.90;;;;;;5057088;28;20114;-77
2022/08/18 10:58:33;;;;;;;1999.90;999.90;;;22.50;99.90;;;;;;5056499;28;20544;-77
2022/08/18 11:01:14;;;;;;;1999.90;999.90;;;22.50;99.90;;;;;;5050011;28;20051;-77
2022/08/18 11:04:02;;;;;;;1999.90;999.90;;;22.60;99.90;;;;;;5067614;28;20290;-78
2022/08/18 11:06:28;;;;;;;1999.90;999.90;;;22.70;99.90;;;;;;5065901;28;20039;-77
2022/08/18 11:08:59;;;;;;;1999.90;999.90;;;22.60;99.90;;;;;;5058125;28;20033;-77
2022/08/18 11:11:33;;;;;;;1999.90;999.90;;;22.50;99.90;;;;;;5067389;28;20036;-78
2022/08/18 11:14:23;;;;;;;1999.90;999.90;;;22.40;99.90;;;;;;5067239;28;20419;-77
2022/08/18 11:16:48;;;;;;;1999.90;999.90;;;22.20;99.90;;;;;;5065454;28;20056;-77
2022/08/18 11:19:17;;;;;;;1999.90;999.90;;;22.20;99.90;;;;;;5066888;28;20044;-76
2022/08/18 11:21:45;;;;;;;1999.90;999.90;;;22.30;99.90;;;;;;5066682;28;20048;-77
2022/08/18 11:24:16;;;;;;;1999.90;999.90;;;22.50;99.90;;;;;;5063673;28;20124;-77
2022/08/18 11:26:50;;;;;;;1999.90;999.90;;;22.80;99.90;;;;;;5066606;28;20040;-77
2022/08/18 11:29:33;;;;;;;1999.90;999.90;;;22.90;99.90;;;;;;5040215;28;20033;-77
2022/08/18 11:32:04;;;;;;;;;;;23.00;99.90;;;;;;5067374;28;20052;-77
2022/08/18 11:34:34;;;;;;;1999.90;999.90;;;23.10;99.90;;;;;;5057265;28;20083;-77
2022/08/18 11:37:05;;;;;;;1999.90;999.90;;;23.10;99.90;;;;;;5067573;28;20079;-77
2022/08/18 11:39:30;;;;;;;1999.90;999.90;;;23.10;99.90;;;;;;5068391;28;20049;-77
2022/08/18 11:41:57;;;;;;;1999.90;999.90;;;23.20;99.90;;;;;;5064665;28;20405;-77
2022/08/18 11:44:30;;;;;;;1999.90;999.90;;;23.10;99.90;;;;;;5067580;28;20144;-77
2022/08/18 11:47:17;;;;;;;1999.90;999.90;;;23.00;99.90;;;;;;5070006;28;20032;-77
2022/08/18 11:50:08;;;;;;;1999.90;999.90;;;22.90;99.90;;;;;;5061267;28;20535;-77
2022/08/18 11:52:48;;;;;;;1999.90;999.90;;;22.50;99.90;;;;;;5065439;28;20060;-77
2022/08/18 11:55:33;;;;;;;1999.90;999.90;;;22.20;99.90;;;;;;5067364;28;20052;-77
2022/08/18 11:57:59;;;;;;;1999.90;999.90;;;22.20;99.90;;;;;;5068559;28;20052;-77
2022/08/18 12:00:57;;;;;;;1999.90;999.90;;;22.20;99.90;;;;;;5072135;28;20137;-77
2022/08/18 12:03:38;;;;;;;1999.90;999.90;;;22.20;99.90;;;;;;5044807;28;20111;-77
2022/08/18 12:06:26;;;;;;;1999.90;999.90;;;22.40;99.90;;;;;;4995369;28;20151;-77
2022/08/18 12:09:14;;;;;;;1999.90;999.90;;;22.60;99.90;;;;;;5002010;28;20422;-76
2022/08/18 12:11:49;;;;;;;1999.90;999.90;;;22.80;99.90;;;;;;5026860;28;20052;-77
2022/08/18 12:14:21;;;;;;;1999.90;999.90;;;22.70;99.90;;;;;;5011689;28;20049;-77
2022/08/18 12:16:47;;;;;;;1999.90;999.90;;;22.60;99.90;;;;;;5007823;28;20414;-76
2022/08/18 12:19:14;;;;;;;1999.90;999.90;;;22.50;99.90;;;;;;5011916;28;20059;-77
2022/08/18 12:21:47;;;;;;;1999.90;999.90;;;22.40;99.90;;;;;;4994671;28;20466;-77
2022/08/18 12:24:20;;;;;;;1999.90;999.90;;;22.40;99.90;;;;;;4995077;28;20136;-77
2022/08/18 12:26:47;;;;;;;1999.90;999.90;;;22.60;99.90;;;;;;5006269;28;20053;-77
2022/08/18 12:29:14;;;;;;;1999.90;999.90;;;23.00;99.90;;;;;;4995384;28;20543;-77
2022/08/18 12:31:39;;;;;;;1999.90;999.90;;;23.50;99.90;;;;;;4995320;28;20171;-77
2022/08/18 12:34:05;;;;;;;1999.90;999.90;;;23.80;99.90;;;;;;5043406;28;20061;-77
2022/08/18 12:36:30;;;;;;;1999.90;999.90;;;23.90;99.90;;;;;;5023134;28;20457;-77
2022/08/18 12:38:56;;;;;;;1999.90;999.90;;;23.90;99.90;;;;;;5056212;28;20079;-77
2022/08/18 12:41:22;;;;;;;1999.90;999.90;;;24.00;99.90;;;;;;5060274;28;20125;-77
2022/08/18 12:43:48;;;;;;;1999.90;999.90;;;24.00;99.90;;;;;;5069366;28;20514;-77
2022/08/18 12:46:14;;;;;;;1999.90;999.90;;;24.00;99.90;;;;;;5061443;28;20082;-77
2022/08/18 12:48:39;;;;;;;1999.90;999.90;;;23.80;99.90;;;;;;5052492;28;20043;-77
2022/08/18 12:51:07;;;;;;;1999.90;999.90;;;23.70;99.90;;;;;;5047104;28;20614;-77